Time;durP1;ratioP1;P1;durP2;ratioP2;P2;SDS_P1;SDS_P2;PMS_P1;PMS_P2;Temp;Humidity;BMP_temperature;BMP_pressure;BME280_temperature;BME280_humidity;BME280_pressure;Samples;Min_cycle;Max_cycle;Signal;HPM_P1;HPM_P2
2023/08/12 08:54:00;;;;;;;2.90;2.70;;;24.70;60.90;;;;;;217167;1284;25503;-57
2023/08/12 08:59:06;;;;;;;8.50;3.00;;;24.60;61.10;;;;;;219901;1273;25130;-60
2023/08/12 09:04:12;;;;;;;5.40;3.00;;;24.80;63.10;;;;;;219926;1268;22653;-60
2023/08/12 09:09:19;;;;;;;5.50;2.90;;;24.80;61.50;;;;;;219896;1282;25311;-60
2023/08/12 09:14:23;;;;;;;4.40;2.60;;;24.80;61.80;;;;;;221938;1264;22558;-60
2023/08/12 09:19:26;;;;;;;6.60;2.70;;;24.80;61.50;;;;;;222021;1264;24246;-61
2023/08/12 09:24:29;;;;;;;4.20;3.20;;;25.00;61.10;;;;;;221645;1267;22518;-65
2023/08/12 09:29:34;;;;;;;4.10;3.10;;;24.90;61.40;;;;;;221850;1265;22520;-60
2023/08/12 09:34:45;;;;;;;5.60;2.80;;;25.00;62.00;;;;;;221795;1264;24731;-59
2023/08/12 09:39:49;;;;;;;4.70;3.40;;;24.90;61.60;;;;;;221810;1259;22614;-60
2023/08/12 09:44:52;;;;;;;4.80;3.10;;;24.90;62.30;;;;;;221769;1263;22542;-58
2023/08/12 09:49:59;;;;;;;7.40;3.30;;;25.00;62.10;;;;;;221871;1271;24068;-59
2023/08/12 09:55:05;;;;;;;6.00;2.90;;;25.00;61.90;;;;;;221741;1265;22562;-59
2023/08/12 10:00:13;;;;;;;4.30;2.90;;;25.00;61.70;;;;;;221833;1248;23831;-60
2023/08/12 10:05:27;;;;;;;3.10;2.80;;;25.10;61.50;;;;;;221559;1268;22738;-60
2023/08/12 10:10:32;;;;;;;3.40;2.70;;;25.20;61.90;;;;;;221623;1268;22514;-60
2023/08/12 10:15:37;;;;;;;3.10;2.90;;;25.20;60.90;;;;;;221734;1263;22607;-55
2023/08/12 10:20:40;;;;;;;5.90;3.00;;;25.20;61.50;;;;;;221824;1266;22580;-53
2023/08/12 10:25:44;;;;;;;4.80;2.80;;;25.20;61.90;;;;;;221609;1265;22520;-52
2023/08/12 10:30:47;;;;;;;3.60;3.20;;;25.40;61.30;;;;;;221886;1265;22636;-58
2023/08/12 10:35:50;;;;;;;4.60;2.80;;;25.40;60.10;;;;;;221589;1271;24163;-55
2023/08/12 10:41:00;;;;;;;5.60;2.80;;;25.80;58.80;;;;;;221943;1263;22651;-54
2023/08/12 10:46:03;;;;;;;5.20;2.60;;;25.90;58.20;;;;;;221798;1266;23574;-55
2023/08/12 10:51:06;;;;;;;6.10;2.70;;;25.80;57.70;;;;;;221410;1268;22530;-52
2023/08/12 10:56:11;;;;;;;3.50;2.80;;;25.80;57.40;;;;;;221239;1265;24751;-53
2023/08/12 11:01:19;;;;;;;3.00;2.60;;;25.90;56.70;;;;;;221638;1267;25404;-49
2023/08/12 11:06:22;;;;;;;7.00;2.40;;;26.00;56.60;;;;;;221603;1259;22511;-52
2023/08/12 11:11:26;;;;;;;4.80;2.50;;;26.00;57.00;;;;;;221502;1265;23145;-51
2023/08/12 11:16:37;;;;;;;3.50;2.60;;;26.10;57.10;;;;;;221671;1266;22640;-51
2023/08/12 11:21:41;;;;;;;4.50;2.20;;;26.20;57.00;;;;;;221478;1263;23144;-53
2023/08/12 11:26:45;;;;;;;5.50;2.30;;;26.30;57.40;;;;;;221720;1270;24211;-51
2023/08/12 11:31:49;;;;;;;6.90;2.40;;;26.30;56.30;;;;;;221493;1270;22537;-53
2023/08/12 11:36:53;;;;;;;6.70;2.80;;;26.40;56.30;;;;;;221689;1271;22516;-49
2023/08/12 11:41:57;;;;;;;2.90;2.10;;;26.50;55.90;;;;;;221576;1263;25331;-51
2023/08/12 11:46:59;;;;;;;8.80;2.30;;;26.50;55.00;;;;;;221674;1268;24280;-51
2023/08/12 11:52:04;;;;;;;16.70;2.50;;;26.50;54.60;;;;;;221577;1248;22543;-53
2023/08/12 11:57:08;;;;;;;2.90;2.00;;;26.60;54.60;;;;;;221749;1268;23238;-49
2023/08/12 12:02:12;;;;;;;2.70;1.90;;;26.50;54.90;;;;;;222458;1268;22519;-53
2023/08/12 12:07:21;;;;;;;6.00;2.00;;;26.60;55.10;;;;;;221993;1255;22626;-54
2023/08/12 12:12:24;;;;;;;3.90;2.00;;;26.80;53.10;;;;;;221898;1265;24226;-53
2023/08/12 12:17:27;;;;;;;3.60;1.80;;;26.80;52.80;;;;;;221891;1268;24178;-52
2023/08/12 12:22:35;;;;;;;5.50;1.60;;;26.80;52.20;;;;;;221678;1266;22513;-51
2023/08/12 12:27:42;;;;;;;1.90;1.80;;;27.00;52.80;;;;;;221981;1269;22524;-54
2023/08/12 12:32:45;;;;;;;4.80;2.00;;;27.00;53.10;;;;;;221530;1263;25005;-53
2023/08/12 12:37:48;;;;;;;1.70;1.60;;;26.90;53.70;;;;;;221671;1268;22780;-52
2023/08/12 12:42:51;;;;;;;3.50;1.80;;;27.10;53.70;;;;;;221758;1260;22533;-51
2023/08/12 12:47:53;;;;;;;2.20;1.90;;;27.10;53.60;;;;;;221551;1268;23926;-51
2023/08/12 12:52:56;;;;;;;4.50;2.30;;;27.10;53.70;;;;;;221868;1268;22583;-53
2023/08/12 12:57:59;;;;;;;1.80;1.70;;;27.10;54.00;;;;;;221840;1268;22990;-53
2023/08/12 13:03:02;;;;;;;5.10;2.10;;;27.10;53.80;;;;;;221714;1265;22528;-53
2023/08/12 13:08:06;;;;;;;2.90;2.20;;;27.10;54.10;;;;;;221627;1268;22528;-53
2023/08/12 13:13:08;;;;;;;5.20;2.40;;;27.00;54.20;;;;;;221686;1268;23972;-52
2023/08/12 13:18:12;;;;;;;3.40;2.00;;;27.10;53.50;;;;;;221782;1268;22528;-52
2023/08/12 13:23:15;;;;;;;3.30;1.90;;;27.00;53.70;;;;;;221714;1270;24066;-51
2023/08/12 13:28:18;;;;;;;4.40;2.10;;;27.00;54.30;;;;;;221850;1264;22576;-51
2023/08/12 13:33:21;;;;;;;2.00;1.90;;;27.10;54.70;;;;;;221447;1271;25234;-50
2023/08/12 13:38:24;;;;;;;10.70;2.30;;;27.00;55.10;;;;;;221710;1271;22506;-51
2023/08/12 13:43:27;;;;;;;2.70;2.40;;;26.90;55.10;;;;;;221944;1255;24233;-48
2023/08/12 13:48:30;;;;;;;3.90;2.30;;;26.90;55.30;;;;;;221767;1264;22517;-55
2023/08/12 13:53:33;;;;;;;5.80;2.10;;;26.90;55.50;;;;;;221797;1267;24292;-53
2023/08/12 13:58:36;;;;;;;2.90;2.70;;;26.90;55.50;;;;;;221729;1255;24208;-53
2023/08/12 14:03:39;;;;;;;2.90;2.70;;;26.90;55.70;;;;;;221667;1263;22523;-49
2023/08/12 14:08:41;;;;;;;2.70;2.50;;;26.90;56.10;;;;;;221778;1259;22510;-50
2023/08/12 14:13:44;;;;;;;2.90;2.40;;;26.90;55.90;;;;;;222015;1268;22521;-52
2023/08/12 14:18:48;;;;;;;3.70;2.30;;;26.80;56.00;;;;;;221611;1265;22543;-52
2023/08/12 14:23:52;;;;;;;4.00;2.40;;;26.90;56.10;;;;;;221738;1256;22546;-51
2023/08/12 14:28:55;;;;;;;3.20;2.80;;;26.80;56.40;;;;;;221987;1268;22805;-51
2023/08/12 14:33:58;;;;;;;2.70;2.50;;;26.70;56.40;;;;;;221961;1268;22546;-50
2023/08/12 14:39:01;;;;;;;2.60;2.40;;;26.70;56.70;;;;;;221802;1271;24232;-52
2023/08/12 14:44:05;;;;;;;2.90;2.30;;;26.70;56.80;;;;;;221630;1268;25148;-49
2023/08/12 14:49:07;;;;;;;2.60;2.40;;;26.70;56.80;;;;;;221853;1264;25552;-52
2023/08/12 14:54:10;;;;;;;2.40;2.20;;;26.70;56.90;;;;;;221427;1269;22645;-48
2023/08/12 14:59:13;;;;;;;2.70;2.50;;;26.60;56.90;;;;;;221612;1265;22743;-48
2023/08/12 15:04:16;;;;;;;2.50;2.30;;;26.60;57.00;;;;;;221793;1271;22634;-51
2023/08/12 15:09:19;;;;;;;3.30;2.60;;;26.60;57.00;;;;;;221838;1267;22568;-51
2023/08/12 15:14:23;;;;;;;2.70;2.20;;;26.60;57.30;;;;;;221611;1268;22519;-49
2023/08/12 15:19:26;;;;;;;3.90;2.40;;;26.70;57.00;;;;;;221942;1264;23930;-51
2023/08/12 15:24:29;;;;;;;2.40;2.20;;;26.60;57.20;;;;;;221642;1271;225095;-48
2023/08/12 15:29:32;;;;;;;3.10;2.20;;;26.60;57.00;;;;;;221845;1270;23094;-51
2023/08/12 15:34:34;;;;;;;2.70;2.40;;;26.70;57.10;;;;;;221641;1259;22530;-50
2023/08/12 15:39:41;;;;;;;4.80;2.50;;;26.60;57.10;;;;;;221823;1257;24208;-51
2023/08/12 15:44:44;;;;;;;3.40;2.70;;;26.60;57.20;;;;;;221831;1264;22553;-48
2023/08/12 15:49:46;;;;;;;3.50;2.50;;;26.60;57.30;;;;;;221922;1263;22532;-52
2023/08/12 15:54:50;;;;;;;2.40;2.20;;;26.60;57.30;;;;;;221878;1271;24236;-48
2023/08/12 15:59:53;;;;;;;2.50;2.30;;;26.50;57.40;;;;;;221740;1266;22596;-51
2023/08/12 16:04:55;;;;;;;3.40;2.50;;;26.50;57.30;;;;;;221672;1271;22704;-51
2023/08/12 16:09:58;;;;;;;2.00;1.90;;;26.50;57.50;;;;;;221769;1263;22618;-53
2023/08/12 16:15:01;;;;;;;4.10;2.40;;;26.50;57.60;;;;;;221783;1270;23902;-51
2023/08/12 16:20:07;;;;;;;3.70;2.40;;;26.50;57.50;;;;;;221716;1269;22615;-51
2023/08/12 16:25:10;;;;;;;4.70;2.90;;;26.50;57.50;;;;;;221913;1256;22533;-53
2023/08/12 16:30:14;;;;;;;2.50;2.30;;;26.50;57.80;;;;;;221866;1256;22525;-53
2023/08/12 16:35:17;;;;;;;3.40;2.40;;;26.50;57.20;;;;;;221949;1271;25313;-49
2023/08/12 16:40:20;;;;;;;3.20;3.00;;;26.50;57.50;;;;;;222020;1271;22779;-52
2023/08/12 16:45:22;;;;;;;3.10;2.90;;;26.50;57.50;;;;;;221835;1271;24182;-48
2023/08/12 16:50:25;;;;;;;3.10;2.60;;;26.50;57.50;;;;;;222009;1270;22917;-49
2023/08/12 16:55:28;;;;;;;5.40;2.90;;;26.40;57.80;;;;;;221898;1270;22635;-52
2023/08/12 17:00:31;;;;;;;2.70;2.50;;;26.30;57.80;;;;;;221782;1271;22527;-50
2023/08/12 17:05:34;;;;;;;2.80;2.60;;;26.30;57.80;;;;;;221786;1257;22527;-50
2023/08/12 17:10:39;;;;;;;2.70;2.40;;;26.40;57.70;;;;;;221949;1265;22543;-54
2023/08/12 17:15:41;;;;;;;2.80;2.50;;;26.40;57.80;;;;;;221789;1265;22553;-52
2023/08/12 17:20:46;;;;;;;3.00;2.70;;;26.30;58.30;;;;;;221975;1269;22572;-49
2023/08/12 17:25:49;;;;;;;3.20;2.60;;;26.20;58.00;;;;;;221830;1271;23488;-50
2023/08/12 17:30:52;;;;;;;3.10;2.60;;;26.30;57.90;;;;;;221893;1267;22531;-49
2023/08/12 17:35:56;;;;;;;3.00;2.70;;;26.30;58.10;;;;;;221800;1271;22547;-51
2023/08/12 17:40:59;;;;;;;2.60;2.40;;;26.20;58.10;;;;;;222033;1271;22650;-53
2023/08/12 17:46:02;;;;;;;2.60;2.40;;;26.20;58.10;;;;;;221864;1269;22525;-50
2023/08/12 17:51:12;;;;;;;2.70;2.40;;;26.20;58.00;;;;;;221802;1271;25319;-50
2023/08/12 17:56:18;;;;;;;2.60;2.40;;;26.20;58.00;;;;;;221773;1271;22531;-52
2023/08/12 18:01:20;;;;;;;2.50;2.10;;;26.20;58.40;;;;;;221941;1264;22748;-49
2023/08/12 18:06:24;;;;;;;3.70;2.50;;;26.20;58.10;;;;;;221769;1271;22764;-49
2023/08/12 18:11:27;;;;;;;2.20;2.10;;;26.10;58.20;;;;;;221866;1265;22716;-50
2023/08/12 18:16:29;;;;;;;3.10;2.80;;;26.10;58.30;;;;;;222103;1269;22551;-52
2023/08/12 18:21:32;;;;;;;4.10;3.20;;;26.10;58.30;;;;;;221694;1264;24249;-49
2023/08/12 18:26:35;;;;;;;3.40;3.10;;;26.10;58.30;;;;;;221967;1258;22527;-50
2023/08/12 18:31:39;;;;;;;3.20;2.90;;;26.10;58.20;;;;;;221693;1257;22594;-51
2023/08/12 18:36:42;;;;;;;3.70;2.80;;;26.10;58.20;;;;;;221883;1271;22719;-50
2023/08/12 18:41:45;;;;;;;4.80;2.70;;;26.10;58.00;;;;;;221774;1270;25390;-50
2023/08/12 18:46:48;;;;;;;2.40;2.20;;;26.20;58.00;;;;;;221896;1264;22520;-51
2023/08/12 18:51:52;;;;;;;5.90;3.80;;;26.10;58.10;;;;;;221587;1267;24237;-51
2023/08/12 18:56:55;;;;;;;3.10;2.90;;;26.10;58.20;;;;;;221952;1270;25356;-51
2023/08/12 19:01:58;;;;;;;3.70;2.40;;;26.10;58.20;;;;;;221965;1248;25318;-54
2023/08/12 19:07:01;;;;;;;6.40;2.90;;;26.10;58.20;;;;;;221625;1267;22529;-52
2023/08/12 19:12:05;;;;;;;12.40;3.10;;;26.00;58.80;;;;;;221795;1264;22706;-49
2023/08/12 19:17:08;;;;;;;11.10;3.10;;;26.00;59.40;;;;;;221919;1263;22679;-55
2023/08/12 19:22:12;;;;;;;10.10;3.10;;;26.00;60.00;;;;;;221719;1264;23890;-52
2023/08/12 19:27:15;;;;;;;8.60;3.40;;;26.00;59.80;;;;;;221976;1270;23941;-53
2023/08/12 19:32:18;;;;;;;10.70;3.10;;;25.90;59.50;;;;;;221601;1267;22549;-52
2023/08/12 19:37:22;;;;;;;8.90;3.20;;;25.90;59.50;;;;;;221699;1271;22524;-54
2023/08/12 19:42:26;;;;;;;11.00;3.50;;;26.00;60.40;;;;;;221911;1267;23926;-54
2023/08/12 19:47:35;;;;;;;11.70;3.30;;;26.00;59.80;;;;;;221867;1257;25281;-54
2023/08/12 19:52:39;;;;;;;10.80;3.60;;;26.00;60.30;;;;;;221925;1263;22592;-53
2023/08/12 19:57:42;;;;;;;9.10;3.40;;;26.00;60.90;;;;;;221801;1267;26707;-55
2023/08/12 20:02:46;;;;;;;17.00;3.60;;;26.00;60.10;;;;;;221891;1264;22536;-49
2023/08/12 20:07:50;;;;;;;4.90;3.90;;;26.10;60.20;;;;;;221769;1260;24860;-55
2023/08/12 20:12:53;;;;;;;7.70;3.70;;;26.00;60.00;;;;;;221919;1264;22519;-52
2023/08/12 20:17:58;;;;;;;6.90;3.90;;;26.00;60.30;;;;;;221699;1255;25391;-55
2023/08/12 20:23:02;;;;;;;8.10;4.00;;;26.00;61.20;;;;;;221866;1271;22535;-55
2023/08/12 20:28:09;;;;;;;8.20;3.70;;;25.90;61.10;;;;;;221665;1268;22561;-53
2023/08/12 20:33:12;;;;;;;13.40;4.40;;;25.90;61.00;;;;;;222114;1267;22632;-53
2023/08/12 20:38:18;;;;;;;6.00;3.60;;;25.90;61.20;;;;;;222035;1256;22616;-55
2023/08/12 20:43:24;;;;;;;7.40;3.60;;;25.80;60.80;;;;;;221823;1263;24236;-54
2023/08/12 20:48:28;;;;;;;10.00;4.30;;;25.90;61.00;;;;;;222030;1271;23215;-54
2023/08/12 20:53:32;;;;;;;6.80;3.90;;;25.80;61.30;;;;;;221728;1270;24279;-53
2023/08/12 20:58:35;;;;;;;6.00;4.00;;;25.70;61.70;;;;;;221856;1269;22524;-53
2023/08/12 21:03:40;;;;;;;9.90;4.10;;;25.70;62.30;;;;;;222082;1263;22644;-53
2023/08/12 21:08:43;;;;;;;6.80;4.00;;;25.70;62.60;;;;;;221874;1264;22523;-53
2023/08/12 21:13:46;;;;;;;4.80;3.90;;;25.60;62.00;;;;;;221762;1266;24204;-54
2023/08/12 21:18:49;;;;;;;6.20;4.00;;;25.60;62.10;;;;;;221783;1264;23154;-52
2023/08/12 21:23:54;;;;;;;7.90;4.30;;;25.60;62.40;;;;;;221867;1260;24212;-51
2023/08/12 21:28:57;;;;;;;11.30;4.40;;;25.70;62.10;;;;;;222046;1267;24267;-53
2023/08/12 21:34:00;;;;;;;9.30;4.90;;;25.60;61.90;;;;;;222064;1264;24203;-54
2023/08/12 21:39:04;;;;;;;5.50;4.60;;;25.70;61.80;;;;;;221787;1255;22726;-54
2023/08/12 21:44:09;;;;;;;11.70;4.40;;;25.70;61.50;;;;;;221652;1266;25329;-52
2023/08/12 21:49:12;;;;;;;6.60;4.10;;;25.70;61.60;;;;;;222079;1264;22576;-52
2023/08/12 21:54:16;;;;;;;16.80;4.10;;;25.60;61.50;;;;;;222007;1265;24273;-53
2023/08/12 21:59:19;;;;;;;9.00;4.80;;;25.40;61.40;;;;;;221930;1260;22539;-52
2023/08/12 22:04:23;;;;;;;5.50;4.00;;;25.50;61.90;;;;;;222108;1263;22527;-53
2023/08/12 22:09:28;;;;;;;4.60;3.60;;;25.50;61.30;;;;;;222014;1264;22518;-52
2023/08/12 22:14:31;;;;;;;6.10;3.60;;;25.40;60.30;;;;;;222065;1267;22530;-52
2023/08/12 22:19:34;;;;;;;5.00;4.20;;;25.40;60.40;;;;;;222054;1269;22774;-52
2023/08/12 22:24:37;;;;;;;3.80;3.50;;;25.40;60.20;;;;;;221747;1263;22521;-53
2023/08/12 22:29:40;;;;;;;3.90;3.60;;;25.30;60.30;;;;;;221693;1264;22583;-53
2023/08/12 22:34:43;;;;;;;5.10;3.80;;;25.50;59.70;;;;;;221758;1255;22520;-51
2023/08/12 22:39:46;;;;;;;6.10;4.10;;;25.70;59.40;;;;;;221998;1256;22534;-53
2023/08/12 22:44:49;;;;;;;4.40;3.10;;;25.70;59.40;;;;;;222018;1264;22533;-53
2023/08/12 22:49:52;;;;;;;4.30;3.40;;;25.80;59.30;;;;;;222003;1264;25507;-52
2023/08/12 22:54:54;;;;;;;3.40;3.00;;;25.80;59.60;;;;;;221899;1267;23379;-52
2023/08/12 22:59:57;;;;;;;5.50;3.40;;;25.70;59.80;;;;;;221747;1267;22565;-59
2023/08/12 23:05:00;;;;;;;5.10;3.00;;;25.70;59.70;;;;;;221809;1264;22643;-52
2023/08/12 23:10:03;;;;;;;3.80;3.50;;;25.80;60.50;;;;;;221705;1261;22532;-53
2023/08/12 23:15:07;;;;;;;5.10;3.30;;;25.70;60.00;;;;;;221884;1255;24395;-53
2023/08/12 23:20:10;;;;;;;5.00;3.50;;;25.70;60.00;;;;;;221877;1264;22628;-53
2023/08/12 23:25:13;;;;;;;5.30;3.50;;;25.70;60.00;;;;;;221959;1263;22523;-52
2023/08/12 23:30:16;;;;;;;3.70;3.10;;;25.60;60.00;;;;;;221924;1256;24388;-53
2023/08/12 23:35:22;;;;;;;5.40;3.40;;;25.60;60.00;;;;;;221796;1263;24082;-54
2023/08/12 23:40:27;;;;;;;3.80;3.50;;;25.60;59.90;;;;;;221673;1268;22527;-52
2023/08/12 23:45:31;;;;;;;3.30;3.10;;;25.60;60.20;;;;;;221863;1263;22547;-54
2023/08/12 23:50:34;;;;;;;3.70;3.30;;;25.70;60.30;;;;;;222007;1264;22889;-50
2023/08/12 23:55:37;;;;;;;3.00;2.70;;;25.70;59.90;;;;;;221781;1255;24071;-53
